Terminal Aerodrome Forecast
Issued by NWS Pueblo, CO

Home | Current Version | Previous Version | Text Only | Print | Product List | Glossary On
Versions: 1 2 3 4 5 6 7 8 9 10 11 12 13 14 15 16 17 18 19 20 21 22 23 24 25 26 27 28 29 30 31 32 33 34 35 36 37 38 39 40 41 42 43 44 45 46 47 48
000
FTUS45 KPUB 260802 AAD
TAFALS
TAF AMD
KALS 260802Z 2608/2706 16015G25KT 2SM -SN OVC020
      TEMPO 2608/2611 1/4SM +SN OVC005
     FM261200 09012KT 1SM -SN OVC008
     FM261800 14010KT 1/2SM SN OVC010
     FM262100 VRB04KT 3SM -SHSN OVC010
     FM270000 15005KT P6SM SCT010 BKN080
     FM270300 30007KT P6SM SCT010 BKN120=

USA.gov is the U.S. government's official web portal to all federal, state and local government web resources and services.